sensor_id;sensor_type;location;lat;lon;timestamp;pressure;altitude;pressure_sealevel;temperature;humidity
59168;BME280;44948;55.046;73.266;2023-04-08T00:02:14;101624.97;;;-10.84;50.11
59168;BME280;44948;55.046;73.266;2023-04-08T00:05:31;101615.09;;;-10.99;50.02
59168;BME280;44948;55.046;73.266;2023-04-08T00:08:34;101610.41;;;-10.90;50.35
59168;BME280;44948;55.046;73.266;2023-04-08T00:11:36;101610.41;;;-10.90;50.09
59168;BME280;44948;55.046;73.266;2023-04-08T00:14:39;101614.53;;;-10.92;50.15
59168;BME280;44948;55.046;73.266;2023-04-08T00:17:42;101616.44;;;-10.86;50.57
59168;BME280;44948;55.046;73.266;2023-04-08T00:20:50;101620.72;;;-10.85;50.65
59168;BME280;44948;55.046;73.266;2023-04-08T00:23:55;101621.97;;;-10.96;51.41
59168;BME280;44948;55.046;73.266;2023-04-08T00:26:57;101612.06;;;-10.90;51.06
59168;BME280;44948;55.046;73.266;2023-04-08T00:30:31;101611.19;;;-11.13;51.80
59168;BME280;44948;55.046;73.266;2023-04-08T00:33:33;101613.38;;;-11.00;52.39
59168;BME280;44948;55.046;73.266;2023-04-08T00:36:46;101615.97;;;-10.98;52.97
59168;BME280;44948;55.046;73.266;2023-04-08T00:40:31;101605.16;;;-10.48;53.26
59168;BME280;44948;55.046;73.266;2023-04-08T00:43:33;101609.47;;;-10.69;53.39
59168;BME280;44948;55.046;73.266;2023-04-08T00:46:38;101607.16;;;-10.86;54.27
59168;BME280;44948;55.046;73.266;2023-04-08T00:49:41;101611.31;;;-10.88;54.93
59168;BME280;44948;55.046;73.266;2023-04-08T00:52:44;101602.00;;;-10.89;55.31
59168;BME280;44948;55.046;73.266;2023-04-08T00:55:46;101606.06;;;-10.70;55.12
59168;BME280;44948;55.046;73.266;2023-04-08T00:58:58;101601.06;;;-10.21;54.67
59168;BME280;44948;55.046;73.266;2023-04-08T01:09:04;101611.22;;;-9.16;53.45
59168;BME280;44948;55.046;73.266;2023-04-08T01:12:08;101615.41;;;-8.90;53.12
59168;BME280;44948;55.046;73.266;2023-04-08T01:15:32;101610.88;;;-9.00;51.53
59168;BME280;44948;55.046;73.266;2023-04-08T01:18:37;101608.09;;;-8.79;51.60
59168;BME280;44948;55.046;73.266;2023-04-08T01:21:40;101617.56;;;-8.73;50.81
59168;BME280;44948;55.046;73.266;2023-04-08T01:24:44;101608.09;;;-8.79;50.12
59168;BME280;44948;55.046;73.266;2023-04-08T01:27:48;101609.34;;;-8.65;50.20
59168;BME280;44948;55.046;73.266;2023-04-08T01:30:54;101610.75;;;-8.74;49.79
59168;BME280;44948;55.046;73.266;2023-04-08T01:33:59;101611.88;;;-8.66;50.17
59168;BME280;44948;55.046;73.266;2023-04-08T01:37:03;101614.88;;;-8.49;50.11
59168;BME280;44948;55.046;73.266;2023-04-08T01:40:31;101609.56;;;-8.57;49.33
59168;BME280;44948;55.046;73.266;2023-04-08T01:43:45;101612.06;;;-8.29;49.21
59168;BME280;44948;55.046;73.266;2023-04-08T01:46:48;101608.72;;;-8.26;49.02
59168;BME280;44948;55.046;73.266;2023-04-08T01:50:31;101618.91;;;-7.94;48.22
59168;BME280;44948;55.046;73.266;2023-04-08T01:53:45;101601.81;;;-8.32;48.56
59168;BME280;44948;55.046;73.266;2023-04-08T01:56:50;101619.06;;;-8.21;48.84
59168;BME280;44948;55.046;73.266;2023-04-08T02:00:32;101615.22;;;-7.73;48.39
59168;BME280;44948;55.046;73.266;2023-04-08T02:03:36;101617.00;;;-8.03;46.32
59168;BME280;44948;55.046;73.266;2023-04-08T02:06:39;101620.88;;;-8.17;47.11
59168;BME280;44948;55.046;73.266;2023-04-08T02:09:42;101608.97;;;-8.18;47.41
59168;BME280;44948;55.046;73.266;2023-04-08T02:12:49;101618.31;;;-7.86;47.55
59168;BME280;44948;55.046;73.266;2023-04-08T02:16:23;101629.47;;;-7.46;47.75
59168;BME280;44948;55.046;73.266;2023-04-08T02:20:30;101619.28;;;-7.10;47.00
59168;BME280;44948;55.046;73.266;2023-04-08T02:23:33;101611.06;;;-6.55;46.58
59168;BME280;44948;55.046;73.266;2023-04-08T02:26:37;101620.91;;;-6.32;45.23
59168;BME280;44948;55.046;73.266;2023-04-08T02:29:41;101603.16;;;-6.25;44.50
59168;BME280;44948;55.046;73.266;2023-04-08T02:32:45;101615.69;;;-5.92;44.19
59168;BME280;44948;55.046;73.266;2023-04-08T02:35:48;101619.78;;;-6.01;42.53
59168;BME280;44948;55.046;73.266;2023-04-08T02:38:51;101622.13;;;-6.12;41.50
59168;BME280;44948;55.046;73.266;2023-04-08T02:41:53;101625.03;;;-5.94;42.11
59168;BME280;44948;55.046;73.266;2023-04-08T02:45:37;101618.16;;;-5.48;41.84
59168;BME280;44948;55.046;73.266;2023-04-08T02:48:52;101601.44;;;-5.79;42.82
59168;BME280;44948;55.046;73.266;2023-04-08T02:51:54;101616.47;;;-5.47;42.31
59168;BME280;44948;55.046;73.266;2023-04-08T02:55:31;101619.81;;;-4.94;41.47
59168;BME280;44948;55.046;73.266;2023-04-08T02:58:43;101619.41;;;-5.21;40.37
59168;BME280;44948;55.046;73.266;2023-04-08T03:01:45;101618.72;;;-5.66;40.72
59168;BME280;44948;55.046;73.266;2023-04-08T03:05:31;101612.56;;;-5.22;40.54
59168;BME280;44948;55.046;73.266;2023-04-08T03:08:34;101612.41;;;-5.35;40.86
59168;BME280;44948;55.046;73.266;2023-04-08T03:11:36;101608.53;;;-5.08;41.03
59168;BME280;44948;55.046;73.266;2023-04-08T03:14:44;101594.66;;;-5.22;39.83
59168;BME280;44948;55.046;73.266;2023-04-08T03:17:55;101607.88;;;-5.51;39.73
59168;BME280;44948;55.046;73.266;2023-04-08T03:20:58;101602.88;;;-5.45;40.43
59168;BME280;44948;55.046;73.266;2023-04-08T03:24:00;101601.44;;;-5.26;40.41
59168;BME280;44948;55.046;73.266;2023-04-08T03:27:02;101598.94;;;-5.21;40.08
59168;BME280;44948;55.046;73.266;2023-04-08T03:30:31;101590.25;;;-5.34;40.96
59168;BME280;44948;55.046;73.266;2023-04-08T03:33:33;101587.97;;;-5.14;40.30
59168;BME280;44948;55.046;73.266;2023-04-08T03:36:35;101598.25;;;-5.11;40.75
59168;BME280;44948;55.046;73.266;2023-04-08T03:39:40;101588.25;;;-4.96;40.90
59168;BME280;44948;55.046;73.266;2023-04-08T03:42:42;101589.94;;;-4.98;40.65
59168;BME280;44948;55.046;73.266;2023-04-08T03:45:45;101570.59;;;-4.75;40.33
59168;BME280;44948;55.046;73.266;2023-04-08T03:48:51;101586.16;;;-4.59;40.15
59168;BME280;44948;55.046;73.266;2023-04-08T03:51:56;101590.56;;;-4.49;39.98
59168;BME280;44948;55.046;73.266;2023-04-08T03:55:31;101590.75;;;-4.31;39.23
59168;BME280;44948;55.046;73.266;2023-04-08T03:58:33;101588.44;;;-4.07;39.81
59168;BME280;44948;55.046;73.266;2023-04-08T04:01:35;101574.03;;;-3.98;38.87
59168;BME280;44948;55.046;73.266;2023-04-08T04:04:42;101583.22;;;-4.17;37.63
59168;BME280;44948;55.046;73.266;2023-04-08T04:07:44;101574.97;;;-3.87;37.91
59168;BME280;44948;55.046;73.266;2023-04-08T04:10:46;101591.09;;;-4.00;38.35
59168;BME280;44948;55.046;73.266;2023-04-08T04:13:48;101563.78;;;-3.95;37.70
59168;BME280;44948;55.046;73.266;2023-04-08T04:16:55;101566.25;;;-4.06;37.38
59168;BME280;44948;55.046;73.266;2023-04-08T04:20:31;101569.16;;;-3.68;36.31
59168;BME280;44948;55.046;73.266;2023-04-08T04:23:33;101560.50;;;-3.82;37.04
59168;BME280;44948;55.046;73.266;2023-04-08T04:26:36;101564.81;;;-3.75;36.85
59168;BME280;44948;55.046;73.266;2023-04-08T04:29:39;101562.34;;;-3.66;36.46
59168;BME280;44948;55.046;73.266;2023-04-08T04:32:42;101552.13;;;-3.57;37.24
59168;BME280;44948;55.046;73.266;2023-04-08T04:35:44;101550.44;;;-3.58;35.99
59168;BME280;44948;55.046;73.266;2023-04-08T04:38:47;101560.75;;;-3.52;35.74
59168;BME280;44948;55.046;73.266;2023-04-08T04:41:50;101560.66;;;-3.61;36.13
59168;BME280;44948;55.046;73.266;2023-04-08T04:45:32;101550.00;;;-2.87;36.57
59168;BME280;44948;55.046;73.266;2023-04-08T04:48:34;101556.13;;;-2.60;35.85
59168;BME280;44948;55.046;73.266;2023-04-08T04:51:47;101537.13;;;-2.99;35.36
59168;BME280;44948;55.046;73.266;2023-04-08T04:55:31;101532.22;;;-2.23;36.02
59168;BME280;44948;55.046;73.266;2023-04-08T04:58:33;101529.56;;;-2.64;34.78
59168;BME280;44948;55.046;73.266;2023-04-08T05:01:38;101535.56;;;-2.53;34.21
59168;BME280;44948;55.046;73.266;2023-04-08T05:04:41;101490.19;;;-2.61;34.65
59168;BME280;44948;55.046;73.266;2023-04-08T05:07:44;101528.81;;;-2.22;35.30
59168;BME280;44948;55.046;73.266;2023-04-08T05:10:49;101525.34;;;-2.39;33.92
59168;BME280;44948;55.046;73.266;2023-04-08T05:13:57;101520.16;;;-2.57;33.97
59168;BME280;44948;55.046;73.266;2023-04-08T05:16:59;101520.19;;;-2.39;34.78
59168;BME280;44948;55.046;73.266;2023-04-08T05:20:31;101501.44;;;-1.98;34.81
59168;BME280;44948;55.046;73.266;2023-04-08T05:23:34;101491.13;;;-2.10;34.35
59168;BME280;44948;55.046;73.266;2023-04-08T05:26:37;101501.41;;;-2.15;35.03
59168;BME280;44948;55.046;73.266;2023-04-08T05:29:39;101508.28;;;-1.74;34.37
59168;BME280;44948;55.046;73.266;2023-04-08T05:32:42;101496.28;;;-1.95;33.17
59168;BME280;44948;55.046;73.266;2023-04-08T05:35:54;101505.69;;;-2.31;33.46
59168;BME280;44948;55.046;73.266;2023-04-08T05:38:57;101506.50;;;-2.41;33.73
59168;BME280;44948;55.046;73.266;2023-04-08T05:42:03;101484.25;;;-2.27;34.59
59168;BME280;44948;55.046;73.266;2023-04-08T05:45:32;101496.28;;;-1.97;33.43
59168;BME280;44948;55.046;73.266;2023-04-08T05:48:35;101480.84;;;-1.98;34.34
59168;BME280;44948;55.046;73.266;2023-04-08T05:51:38;101482.53;;;-2.46;33.65
59168;BME280;44948;55.046;73.266;2023-04-08T05:54:43;101479.13;;;-2.30;34.46
59168;BME280;44948;55.046;73.266;2023-04-08T05:57:56;101473.13;;;-1.92;35.44
59168;BME280;44948;55.046;73.266;2023-04-08T06:01:00;101468.84;;;-1.76;34.33
59168;BME280;44948;55.046;73.266;2023-04-08T06:04:03;101461.94;;;-1.57;34.16
59168;BME280;44948;55.046;73.266;2023-04-08T06:07:05;101434.56;;;-2.04;34.53
59168;BME280;44948;55.046;73.266;2023-04-08T06:10:31;101459.41;;;-2.18;34.85
59168;BME280;44948;55.046;73.266;2023-04-08T06:13:33;101449.97;;;-1.62;35.20
59168;BME280;44948;55.046;73.266;2023-04-08T06:16:35;101449.97;;;-1.65;34.06
59168;BME280;44948;55.046;73.266;2023-04-08T06:19:38;101439.69;;;-1.80;34.34
59168;BME280;44948;55.046;73.266;2023-04-08T06:22:40;101428.56;;;-1.80;35.00
59168;BME280;44948;55.046;73.266;2023-04-08T06:25:42;101436.25;;;-1.67;35.07
59168;BME280;44948;55.046;73.266;2023-04-08T06:28:45;101431.94;;;-1.60;34.64
59168;BME280;44948;55.046;73.266;2023-04-08T06:31:47;101441.31;;;-1.39;34.62
59168;BME280;44948;55.046;73.266;2023-04-08T06:35:31;101428.88;;;-0.52;34.71
59168;BME280;44948;55.046;73.266;2023-04-08T06:38:33;101436.06;;;-1.12;34.27
59168;BME280;44948;55.046;73.266;2023-04-08T06:41:38;101429.22;;;-1.13;33.94
59168;BME280;44948;55.046;73.266;2023-04-08T06:45:33;101427.34;;;-0.83;34.74
59168;BME280;44948;55.046;73.266;2023-04-08T06:48:40;101418.09;;;-1.21;35.40
59168;BME280;44948;55.046;73.266;2023-04-08T06:51:42;101404.38;;;-1.24;36.25
59168;BME280;44948;55.046;73.266;2023-04-08T06:55:31;101412.09;;;-1.17;35.23
59168;BME280;44948;55.046;73.266;2023-04-08T06:58:33;101401.81;;;-1.26;36.16
59168;BME280;44948;55.046;73.266;2023-04-08T07:01:46;101386.38;;;-1.26;36.30
59168;BME280;44948;55.046;73.266;2023-04-08T07:05:31;101381.84;;;-0.80;35.78
59168;BME280;44948;55.046;73.266;2023-04-08T07:08:34;101390.72;;;-1.42;36.32
59168;BME280;44948;55.046;73.266;2023-04-08T07:11:37;101377.84;;;-1.40;36.69
59168;BME280;44948;55.046;73.266;2023-04-08T07:14:39;101379.63;;;-1.57;37.49
59168;BME280;44948;55.046;73.266;2023-04-08T07:17:41;101372.81;;;-1.65;37.12
59168;BME280;44948;55.046;73.266;2023-04-08T07:20:44;101370.25;;;-1.78;38.20
59168;BME280;44948;55.046;73.266;2023-04-08T07:23:47;101364.25;;;-1.79;37.59
59168;BME280;44948;55.046;73.266;2023-04-08T07:26:49;101359.97;;;-1.77;38.23
59168;BME280;44948;55.046;73.266;2023-04-08T07:30:31;101352.16;;;-1.46;37.63
59168;BME280;44948;55.046;73.266;2023-04-08T07:33:33;101350.47;;;-1.58;38.75
59168;BME280;44948;55.046;73.266;2023-04-08T07:36:36;101341.06;;;-1.61;38.76
59168;BME280;44948;55.046;73.266;2023-04-08T07:39:39;101347.13;;;-1.86;38.17
59168;BME280;44948;55.046;73.266;2023-04-08T07:42:41;101336.78;;;-1.71;38.94
59168;BME280;44948;55.046;73.266;2023-04-08T07:45:43;101340.31;;;-1.99;39.95
59168;BME280;44948;55.046;73.266;2023-04-08T07:48:45;101336.03;;;-1.97;38.85
59168;BME280;44948;55.046;73.266;2023-04-08T07:51:47;101331.66;;;-1.75;39.29
59168;BME280;44948;55.046;73.266;2023-04-08T07:55:34;101338.44;;;-1.48;39.61
59168;BME280;44948;55.046;73.266;2023-04-08T07:58:38;101329.91;;;-1.59;39.40
59168;BME280;44948;55.046;73.266;2023-04-08T08:01:48;101318.00;;;-1.88;40.43
59168;BME280;44948;55.046;73.266;2023-04-08T08:05:31;101312.63;;;-1.38;40.26
59168;BME280;44948;55.046;73.266;2023-04-08T08:08:33;101297.38;;;-1.76;40.78
59168;BME280;44948;55.046;73.266;2023-04-08T08:11:37;101314.53;;;-1.75;40.52
59168;BME280;44948;55.046;73.266;2023-04-08T08:14:39;101307.59;;;-1.57;41.01
59168;BME280;44948;55.046;73.266;2023-04-08T08:17:41;101312.72;;;-1.48;40.90
59168;BME280;44948;55.046;73.266;2023-04-08T08:20:44;101290.44;;;-1.58;41.05
59168;BME280;44948;55.046;73.266;2023-04-08T08:23:46;101296.44;;;-1.56;40.83
59168;BME280;44948;55.046;73.266;2023-04-08T08:26:48;101290.53;;;-1.77;40.43
59168;BME280;44948;55.046;73.266;2023-04-08T08:30:31;101283.47;;;-1.34;40.86
59168;BME280;44948;55.046;73.266;2023-04-08T08:33:33;101276.78;;;-1.73;40.89
59168;BME280;44948;55.046;73.266;2023-04-08T08:36:36;101286.19;;;-1.64;41.08
59168;BME280;44948;55.046;73.266;2023-04-08T08:39:38;101287.94;;;-1.75;41.11
59168;BME280;44948;55.046;73.266;2023-04-08T08:42:40;101275.06;;;-1.65;41.13
59168;BME280;44948;55.046;73.266;2023-04-08T08:45:43;101271.63;;;-1.70;41.98
59168;BME280;44948;55.046;73.266;2023-04-08T08:48:45;101287.06;;;-1.68;41.74
59168;BME280;44948;55.046;73.266;2023-04-08T08:51:48;101280.28;;;-1.81;40.96
59168;BME280;44948;55.046;73.266;2023-04-08T08:55:31;101275.00;;;-1.55;40.33
59168;BME280;44948;55.046;73.266;2023-04-08T08:58:41;101261.34;;;-1.73;41.09
59168;BME280;44948;55.046;73.266;2023-04-08T09:01:43;101250.19;;;-1.66;41.13
59168;BME280;44948;55.046;73.266;2023-04-08T09:04:59;101248.53;;;-1.76;41.22
59168;BME280;44948;55.046;73.266;2023-04-08T09:08:02;101251.13;;;-1.88;41.45
59168;BME280;44948;55.046;73.266;2023-04-08T09:11:15;101256.28;;;-1.82;42.96
59168;BME280;44948;55.046;73.266;2023-04-08T09:14:21;101242.53;;;-1.78;41.92
59168;BME280;44948;55.046;73.266;2023-04-08T09:17:31;101237.44;;;-1.84;43.43
59168;BME280;44948;55.046;73.266;2023-04-08T09:20:53;101247.78;;;-1.99;43.65
59168;BME280;44948;55.046;73.266;2023-04-08T09:23:55;101248.63;;;-2.00;43.49
59168;BME280;44948;55.046;73.266;2023-04-08T09:26:57;101215.09;;;-1.79;44.29
59168;BME280;44948;55.046;73.266;2023-04-08T09:30:30;101234.09;;;-2.19;43.65
59168;BME280;44948;55.046;73.266;2023-04-08T09:33:33;101227.16;;;-1.93;43.97
59168;BME280;44948;55.046;73.266;2023-04-08T09:36:35;101218.59;;;-1.92;43.64
59168;BME280;44948;55.046;73.266;2023-04-08T09:39:37;101226.28;;;-1.89;44.36
59168;BME280;44948;55.046;73.266;2023-04-08T09:42:46;101205.75;;;-1.94;43.75
59168;BME280;44948;55.046;73.266;2023-04-08T09:45:52;101215.13;;;-1.82;43.89
59168;BME280;44948;55.046;73.266;2023-04-08T09:52:07;101201.41;;;-1.81;44.56
59168;BME280;44948;55.046;73.266;2023-04-08T09:55:30;101193.78;;;-2.05;45.03
59168;BME280;44948;55.046;73.266;2023-04-08T09:59:02;101188.63;;;-2.02;44.43
59168;BME280;44948;55.046;73.266;2023-04-08T10:02:10;101179.22;;;-1.97;45.10
59168;BME280;44948;55.046;73.266;2023-04-08T10:05:30;101184.34;;;-1.97;46.59
59168;BME280;44948;55.046;73.266;2023-04-08T10:08:37;101174.03;;;-1.94;45.58
59168;BME280;44948;55.046;73.266;2023-04-08T10:11:39;101161.13;;;-1.88;44.47
59168;BME280;44948;55.046;73.266;2023-04-08T10:14:58;101155.06;;;-1.75;44.04
59168;BME280;44948;55.046;73.266;2023-04-08T10:21:30;101148.25;;;-1.79;45.00
59168;BME280;44948;55.046;73.266;2023-04-08T10:24:32;101150.78;;;-1.74;43.88
59168;BME280;44948;55.046;73.266;2023-04-08T10:27:39;101155.03;;;-1.72;44.91
59168;BME280;44948;55.046;73.266;2023-04-08T10:30:47;101140.34;;;-1.53;45.20
59168;BME280;44948;55.046;73.266;2023-04-08T10:37:19;101132.84;;;-1.82;45.17
59168;BME280;44948;55.046;73.266;2023-04-08T10:40:34;101150.09;;;-2.05;44.94
59168;BME280;44948;55.046;73.266;2023-04-08T10:43:39;101136.34;;;-2.01;44.02
59168;BME280;44948;55.046;73.266;2023-04-08T10:46:41;101141.41;;;-1.84;45.27
59168;BME280;44948;55.046;73.266;2023-04-08T10:49:44;101138.94;;;-2.00;44.18
59168;BME280;44948;55.046;73.266;2023-04-08T10:52:46;101149.25;;;-2.06;44.61
59168;BME280;44948;55.046;73.266;2023-04-08T10:55:49;101139.78;;;-1.96;44.68
59168;BME280;44948;55.046;73.266;2023-04-08T10:58:54;101129.53;;;-1.99;44.57
59168;BME280;44948;55.046;73.266;2023-04-08T11:01:57;101145.75;;;-1.93;45.29
59168;BME280;44948;55.046;73.266;2023-04-08T11:05:31;101137.34;;;-2.27;45.03
59168;BME280;44948;55.046;73.266;2023-04-08T11:08:47;101114.22;;;-2.27;45.25
59168;BME280;44948;55.046;73.266;2023-04-08T11:11:51;101122.66;;;-1.97;45.61
59168;BME280;44948;55.046;73.266;2023-04-08T11:15:32;101125.81;;;-1.60;44.62
59168;BME280;44948;55.046;73.266;2023-04-08T11:18:40;101119.16;;;-1.90;44.22
59168;BME280;44948;55.046;73.266;2023-04-08T11:21:42;101107.34;;;-2.15;44.21
59168;BME280;44948;55.046;73.266;2023-04-08T11:24:45;101111.44;;;-1.88;44.86
59168;BME280;44948;55.046;73.266;2023-04-08T11:27:48;101102.91;;;-1.94;44.30
59168;BME280;44948;55.046;73.266;2023-04-08T11:30:51;101117.56;;;-2.08;44.76
59168;BME280;44948;55.046;73.266;2023-04-08T11:33:58;101106.41;;;-2.05;44.76
59168;BME280;44948;55.046;73.266;2023-04-08T11:37:01;101110.63;;;-1.95;45.17
59168;BME280;44948;55.046;73.266;2023-04-08T11:40:31;101089.13;;;-1.82;45.40
59168;BME280;44948;55.046;73.266;2023-04-08T11:43:33;101084.94;;;-1.97;46.11
59168;BME280;44948;55.046;73.266;2023-04-08T11:46:51;101084.13;;;-2.06;46.23
59168;BME280;44948;55.046;73.266;2023-04-08T11:50:31;101083.78;;;-1.57;45.97
59168;BME280;44948;55.046;73.266;2023-04-08T11:53:37;101082.94;;;-1.59;46.19
59168;BME280;44948;55.046;73.266;2023-04-08T11:56:50;101077.69;;;-1.44;45.69
59168;BME280;44948;55.046;73.266;2023-04-08T12:00:31;101025.97;;;-1.17;44.87
59168;BME280;44948;55.046;73.266;2023-04-08T12:03:57;101032.88;;;-1.25;45.27
59168;BME280;44948;55.046;73.266;2023-04-08T12:07:03;101042.00;;;-0.95;45.13
59168;BME280;44948;55.046;73.266;2023-04-08T12:10:31;101036.50;;;-0.64;44.65
59168;BME280;44948;55.046;73.266;2023-04-08T12:13:35;101038.50;;;-0.89;44.60
59168;BME280;44948;55.046;73.266;2023-04-08T12:16:38;101031.72;;;-0.96;44.78
59168;BME280;44948;55.046;73.266;2023-04-08T12:20:31;101021.66;;;-0.47;43.39
59168;BME280;44948;55.046;73.266;2023-04-08T12:23:33;101019.47;;;-0.76;43.78
59168;BME280;44948;55.046;73.266;2023-04-08T12:26:35;101021.22;;;-0.80;44.35
59168;BME280;44948;55.046;73.266;2023-04-08T12:29:40;101022.50;;;-1.19;44.68
59168;BME280;44948;55.046;73.266;2023-04-08T12:32:45;101021.03;;;-1.41;45.41
59168;BME280;44948;55.046;73.266;2023-04-08T12:35:48;101014.25;;;-1.51;45.36
59168;BME280;44948;55.046;73.266;2023-04-08T12:38:50;101018.63;;;-1.59;45.09
59168;BME280;44948;55.046;73.266;2023-04-08T12:41:53;101016.13;;;-1.69;45.25
59168;BME280;44948;55.046;73.266;2023-04-08T12:45:32;101012.47;;;-1.42;45.54
59168;BME280;44948;55.046;73.266;2023-04-08T12:48:34;100996.44;;;-1.71;46.57
59168;BME280;44948;55.046;73.266;2023-04-08T12:51:47;100991.41;;;-1.82;46.02
59168;BME280;44948;55.046;73.266;2023-04-08T12:55:31;100995.25;;;-1.37;46.04
59168;BME280;44948;55.046;73.266;2023-04-08T12:58:36;100990.28;;;-1.50;46.65
59168;BME280;44948;55.046;73.266;2023-04-08T13:01:38;100973.28;;;-1.70;46.36
59168;BME280;44948;55.046;73.266;2023-04-08T13:04:40;100973.44;;;-1.88;47.25
59168;BME280;44948;55.046;73.266;2023-04-08T13:07:45;100969.28;;;-2.00;47.25
59168;BME280;44948;55.046;73.266;2023-04-08T13:10:58;100974.44;;;-2.00;47.79
59168;BME280;44948;55.046;73.266;2023-04-08T13:14:01;100977.91;;;-2.08;48.15
59168;BME280;44948;55.046;73.266;2023-04-08T13:17:06;100973.69;;;-2.15;48.86
59168;BME280;44948;55.046;73.266;2023-04-08T13:20:30;100978.16;;;-2.42;49.35
59168;BME280;44948;55.046;73.266;2023-04-08T13:23:34;100970.38;;;-2.30;49.09
59168;BME280;44948;55.046;73.266;2023-04-08T13:26:37;100978.91;;;-2.28;49.67
59168;BME280;44948;55.046;73.266;2023-04-08T13:29:39;100972.91;;;-2.27;49.85
59168;BME280;44948;55.046;73.266;2023-04-08T13:32:42;100954.09;;;-2.29;49.79
59168;BME280;44948;55.046;73.266;2023-04-08T13:35:44;100949.88;;;-2.39;50.25
59168;BME280;44948;55.046;73.266;2023-04-08T13:38:51;100949.88;;;-2.39;50.27
59168;BME280;44948;55.046;73.266;2023-04-08T13:41:53;100948.13;;;-2.37;50.77
59168;BME280;44948;55.046;73.266;2023-04-08T13:45:32;100962.34;;;-1.90;50.49
59168;BME280;44948;55.046;73.266;2023-04-08T13:48:45;100957.34;;;-2.10;50.70
59168;BME280;44948;55.046;73.266;2023-04-08T13:51:53;100954.88;;;-2.17;50.75
59168;BME280;44948;55.046;73.266;2023-04-08T13:55:31;100955.44;;;-1.86;50.72
59168;BME280;44948;55.046;73.266;2023-04-08T13:58:36;100953.13;;;-2.14;51.40
59168;BME280;44948;55.046;73.266;2023-04-08T14:01:38;100954.88;;;-2.21;51.36
59168;BME280;44948;55.046;73.266;2023-04-08T14:04:45;100949.00;;;-2.33;52.01
59168;BME280;44948;55.046;73.266;2023-04-08T14:07:50;100951.56;;;-2.38;52.02
59168;BME280;44948;55.046;73.266;2023-04-08T14:10:54;100955.84;;;-2.38;52.42
59168;BME280;44948;55.046;73.266;2023-04-08T14:14:07;100949.88;;;-2.39;52.82
59168;BME280;44948;55.046;73.266;2023-04-08T14:17:09;100956.75;;;-2.44;52.83
59168;BME280;44948;55.046;73.266;2023-04-08T14:20:30;100952.63;;;-2.72;53.36
59168;BME280;44948;55.046;73.266;2023-04-08T14:23:33;100960.25;;;-2.51;53.43
59168;BME280;44948;55.046;73.266;2023-04-08T14:26:35;100949.16;;;-2.62;53.22
59168;BME280;44948;55.046;73.266;2023-04-08T14:30:31;100963.38;;;-2.12;52.50
59168;BME280;44948;55.046;73.266;2023-04-08T14:33:38;100963.59;;;-2.41;53.05
59168;BME280;44948;55.046;73.266;2023-04-08T14:36:41;100958.50;;;-2.52;53.53
59168;BME280;44948;55.046;73.266;2023-04-08T14:39:44;100956.03;;;-2.63;53.56
59168;BME280;44948;55.046;73.266;2023-04-08T14:42:46;100961.97;;;-2.56;54.19
59168;BME280;44948;55.046;73.266;2023-04-08T14:45:50;100952.63;;;-2.71;54.32
59168;BME280;44948;55.046;73.266;2023-04-08T14:48:58;100967.97;;;-2.59;54.60
59168;BME280;44948;55.046;73.266;2023-04-08T14:52:01;100972.28;;;-2.62;54.85
59168;BME280;44948;55.046;73.266;2023-04-08T14:55:31;100972.13;;;-2.39;54.32
59168;BME280;44948;55.046;73.266;2023-04-08T14:58:38;100976.53;;;-2.57;55.22
59168;BME280;44948;55.046;73.266;2023-04-08T15:01:45;100985.97;;;-2.63;55.36
59168;BME280;44948;55.046;73.266;2023-04-08T15:05:31;100981.44;;;-2.25;54.81
59168;BME280;44948;55.046;73.266;2023-04-08T15:08:44;100984.19;;;-2.52;55.38
59168;BME280;44948;55.046;73.266;2023-04-08T15:11:46;100966.34;;;-2.75;55.90
59168;BME280;44948;55.046;73.266;2023-04-08T15:15:32;100992.66;;;-2.32;55.48
59168;BME280;44948;55.046;73.266;2023-04-08T15:18:42;100990.22;;;-2.56;55.96
59168;BME280;44948;55.046;73.266;2023-04-08T15:21:50;100999.69;;;-2.69;56.58
59168;BME280;44948;55.046;73.266;2023-04-08T15:25:31;101004.69;;;-2.43;56.44
59168;BME280;44948;55.046;73.266;2023-04-08T15:28:43;100998.84;;;-2.65;56.85
59168;BME280;44948;55.046;73.266;2023-04-08T15:31:46;101004.84;;;-2.70;57.21
59168;BME280;44948;55.046;73.266;2023-04-08T15:35:31;101006.34;;;-2.33;56.52
59168;BME280;44948;55.046;73.266;2023-04-08T15:38:34;100999.66;;;-2.61;57.16
59168;BME280;44948;55.046;73.266;2023-04-08T15:41:36;101006.53;;;-2.69;57.35
59168;BME280;44948;55.046;73.266;2023-04-08T15:44:44;101001.41;;;-2.69;57.33
59168;BME280;44948;55.046;73.266;2023-04-08T15:47:46;101006.56;;;-2.75;57.81
59168;BME280;44948;55.046;73.266;2023-04-08T15:50:48;101010.88;;;-2.79;57.77
59168;BME280;44948;55.046;73.266;2023-04-08T15:53:51;101010.88;;;-2.77;57.39
59168;BME280;44948;55.046;73.266;2023-04-08T15:56:53;101006.63;;;-2.82;57.60
59168;BME280;44948;55.046;73.266;2023-04-08T16:00:31;101011.53;;;-2.42;57.15
59168;BME280;44948;55.046;73.266;2023-04-08T16:03:33;101007.34;;;-2.57;57.21
59168;BME280;44948;55.046;73.266;2023-04-08T16:06:36;101002.25;;;-2.63;57.03
59168;BME280;44948;55.046;73.266;2023-04-08T16:10:31;101001.16;;;-2.24;56.41
59168;BME280;44948;55.046;73.266;2023-04-08T16:13:35;100994.47;;;-2.54;56.96
59168;BME280;44948;55.046;73.266;2023-04-08T16:16:40;100995.38;;;-2.61;57.47
59168;BME280;44948;55.046;73.266;2023-04-08T16:20:31;100996.03;;;-2.28;56.63
59168;BME280;44948;55.046;73.266;2023-04-08T16:23:34;100984.22;;;-2.58;57.47
59168;BME280;44948;55.046;73.266;2023-04-08T16:26:38;100992.78;;;-2.56;57.92
59168;BME280;44948;55.046;73.266;2023-04-08T16:30:31;100981.44;;;-2.23;56.67
59168;BME280;44948;55.046;73.266;2023-04-08T16:33:33;100990.09;;;-2.38;57.14
59168;BME280;44948;55.046;73.266;2023-04-08T16:36:36;100977.28;;;-2.41;57.67
59168;BME280;44948;55.046;73.266;2023-04-08T16:39:38;100959.38;;;-2.55;57.78
59168;BME280;44948;55.046;73.266;2023-04-08T16:42:40;100973.03;;;-2.45;57.68